Time;durP1;ratioP1;P1;durP2;ratioP2;P2;SDS_P1;SDS_P2;PMS_P1;PMS_P2;Temp;Humidity;BMP_temperature;BMP_pressure;BME280_temperature;BME280_humidity;BME280_pressure;Samples;Min_cycle;Max_cycle;Signal;HPM_P1;HPM_P2
2024/01/18 00:01:13;;;;;;;12.43;9.30;;;-1.30;99.90;;;;;;5069909;28;19920;-63
2024/01/18 00:03:40;;;;;;;;;;;-1.30;99.90;;;;;;5070251;28;20071;-63
2024/01/18 00:06:07;;;;;;;15.00;9.93;;;-1.30;99.90;;;;;;5069462;28;19932;-63
2024/01/18 00:08:34;;;;;;;14.90;11.23;;;-1.30;99.90;;;;;;5069825;28;20048;-63
2024/01/18 00:11:03;;;;;;;14.45;9.73;;;-1.40;99.90;;;;;;5070197;28;20082;-62
2024/01/18 00:13:29;;;;;;;11.32;9.27;;;-1.20;99.90;;;;;;5069542;28;20040;-63
2024/01/18 00:15:55;;;;;;;;;;;-1.20;99.90;;;;;;5070545;28;20067;-63
2024/01/18 00:18:22;;;;;;;11.23;8.00;;;-1.10;99.90;;;;;;5069778;28;19924;-63
2024/01/18 00:20:48;;;;;;;;;;;-1.20;99.90;;;;;;5070360;28;20048;-63
2024/01/18 00:23:14;;;;;;;12.48;8.32;;;-1.20;99.90;;;;;;5069519;28;19924;-62
2024/01/18 00:25:40;;;;;;;;;;;-1.20;99.90;;;;;;5070409;28;20071;-63
2024/01/18 00:28:06;;;;;;;12.60;9.32;;;-1.20;99.90;;;;;;5069313;28;19924;-63
2024/01/18 00:30:33;;;;;;;;;;;-1.20;99.90;;;;;;5070182;28;20044;-62
2024/01/18 00:32:59;;;;;;;11.18;8.43;;;-1.00;99.90;;;;;;5101933;28;20409;-63
2024/01/18 00:35:25;;;;;;;;;;;-1.10;99.90;;;;;;5068969;28;20059;-62
2024/01/18 00:37:52;;;;;;;11.40;8.65;;;-1.10;99.90;;;;;;5069143;28;19935;-63
2024/01/18 00:40:18;;;;;;;9.75;8.70;;;-1.10;99.90;;;;;;5069185;28;20051;-62
2024/01/18 00:42:44;;;;;;;;;;;-1.10;99.90;;;;;;5069936;28;20048;-63
2024/01/18 00:45:10;;;;;;;9.90;7.80;;;-0.90;99.90;;;;;;5068491;28;20295;-62
2024/01/18 00:47:37;;;;;;;11.15;7.85;;;-1.00;99.90;;;;;;5066304;28;20110;-63
2024/01/18 00:50:03;;;;;;;;;;;-1.00;99.90;;;;;;5052103;28;20048;-64
2024/01/18 00:52:30;;;;;;;9.95;7.13;;;-1.00;99.90;;;;;;5069388;28;19931;-62
2024/01/18 00:54:56;;;;;;;11.80;6.70;;;-1.10;99.90;;;;;;5051520;28;20539;-62
2024/01/18 00:57:22;;;;;;;;;;;-1.10;99.90;;;;;;5069627;28;20056;-64
2024/01/18 00:59:48;;;;;;;8.20;6.70;;;-1.10;99.90;;;;;;5051300;28;19924;-62
2024/01/18 01:02:15;;;;;;;10.35;6.82;;;-1.20;99.90;;;;;;5069374;28;20044;-62
2024/01/18 01:04:41;;;;;;;;;;;-1.20;99.90;;;;;;5051804;28;20057;-63
2024/01/18 01:07:07;;;;;;;11.82;6.95;;;-1.10;99.90;;;;;;5051212;28;19932;-63
2024/01/18 01:09:33;;;;;;;;;;;-1.10;99.90;;;;;;5069810;28;20048;-62
2024/01/18 01:11:59;;;;;;;9.57;6.22;;;-1.10;99.90;;;;;;5069415;28;20362;-62
2024/01/18 01:14:26;;;;;;;;;;;-1.10;99.90;;;;;;5069743;28;20067;-63
2024/01/18 01:16:52;;;;;;;10.70;6.38;;;-1.10;99.90;;;;;;5068860;28;19920;-63
2024/01/18 01:19:18;;;;;;;10.93;6.00;;;-1.10;99.90;;;;;;5051823;28;20127;-62
2024/01/18 01:21:45;;;;;;;;;;;-0.60;99.90;;;;;;5073419;28;20051;-62
2024/01/18 01:24:11;;;;;;;10.40;5.82;;;-1.20;99.90;;;;;;5055189;28;20244;-62
2024/01/18 01:26:37;;;;;;;;;;;-1.20;99.90;;;;;;5055389;28;20063;-63
2024/01/18 01:29:04;;;;;;;9.52;4.60;;;-1.10;99.90;;;;;;5088643;28;19931;-62
2024/01/18 01:31:31;;;;;;;8.07;4.85;;;-1.10;99.90;;;;;;5055464;28;20059;-62
2024/01/18 01:33:57;;;;;;;9.50;5.38;;;-1.10;99.90;;;;;;5054794;28;20056;-62
2024/01/18 01:36:23;;;;;;;;;;;-1.20;99.90;;;;;;5073222;28;20063;-63
2024/01/18 01:38:50;;;;;;;6.95;4.28;;;-1.10;99.90;;;;;;5072898;28;20344;-63
2024/01/18 01:41:16;;;;;;;;;;;-1.30;99.90;;;;;;5055133;28;20071;-62
2024/01/18 01:44:01;;;;;;;8.30;4.78;;;-1.20;99.90;;;;;;5072637;28;19924;-62
2024/01/18 01:46:28;;;;;;;8.73;5.45;;;-1.20;99.90;;;;;;5072437;28;20110;-63
2024/01/18 01:49:02;;;;;;;6.75;4.80;;;-1.30;99.90;;;;;;5088435;28;20059;-63
2024/01/18 01:51:37;;;;;;;8.57;5.10;;;-1.40;99.90;;;;;;5092548;28;20464;-63
2024/01/18 01:54:04;;;;;;;8.73;4.38;;;-1.40;99.90;;;;;;5063595;28;20060;-62
2024/01/18 01:56:33;;;;;;;8.48;4.97;;;-1.40;99.90;;;;;;5054235;28;20048;-62
2024/01/18 01:58:59;;;;;;;6.88;4.78;;;-1.50;99.90;;;;;;5054734;28;20449;-63
2024/01/18 02:01:26;;;;;;;7.63;4.75;;;-1.40;99.90;;;;;;5072414;28;20083;-63
2024/01/18 02:03:52;;;;;;;8.15;4.93;;;-1.50;99.90;;;;;;5063729;28;20078;-62
2024/01/18 02:06:19;;;;;;;6.85;4.40;;;-1.40;99.90;;;;;;5073840;28;20071;-63
2024/01/18 02:08:45;;;;;;;;;;;-1.50;99.90;;;;;;5092557;28;20056;-62
2024/01/18 02:11:12;;;;;;;6.72;5.07;;;-1.60;99.90;;;;;;5074229;28;19928;-63
2024/01/18 02:13:39;;;;;;;6.82;5.00;;;-1.50;99.90;;;;;;5084628;28;20075;-64
2024/01/18 02:16:05;;;;;;;6.72;5.15;;;-1.40;99.90;;;;;;5071589;28;20044;-63
2024/01/18 02:18:31;;;;;;;8.77;4.80;;;-1.50;99.90;;;;;;5072203;28;20048;-61
2024/01/18 02:20:58;;;;;;;;;;;-1.40;99.90;;;;;;5054605;28;20381;-63
2024/01/18 02:23:28;;;;;;;6.80;4.07;;;-1.50;99.90;;;;;;5058939;28;19924;-63
2024/01/18 02:25:54;;;;;;;6.20;4.43;;;-1.50;99.90;;;;;;5073845;28;20101;-63
2024/01/18 02:28:20;;;;;;;9.43;5.10;;;-1.60;99.90;;;;;;5092426;28;20052;-62
2024/01/18 02:30:46;;;;;;;;;;;-1.60;99.90;;;;;;5074305;28;20056;-62
2024/01/18 02:33:13;;;;;;;8.00;5.22;;;-1.70;99.90;;;;;;5073437;28;19924;-63
2024/01/18 02:35:39;;;;;;;9.18;4.60;;;-1.70;99.90;;;;;;5073759;28;20048;-62
2024/01/18 02:38:05;;;;;;;;;;;-1.90;99.90;;;;;;5092017;28;20047;-63
2024/01/18 02:40:31;;;;;;;8.65;4.53;;;-1.90;99.90;;;;;;5091773;28;19924;-63
2024/01/18 02:42:58;;;;;;;7.10;5.20;;;-1.80;99.90;;;;;;5072348;28;20056;-64
2024/01/18 02:45:24;;;;;;;;;;;-2.00;99.90;;;;;;5072365;28;20445;-62
2024/01/18 02:47:50;;;;;;;5.63;4.15;;;-2.00;99.90;;;;;;5053383;28;19939;-63
2024/01/18 02:50:16;;;;;;;;;;;-1.90;99.90;;;;;;5071719;28;20064;-61
2024/01/18 02:52:43;;;;;;;5.85;3.38;;;-2.00;99.90;;;;;;5053364;28;19921;-63
2024/01/18 02:55:09;;;;;;;5.28;2.60;;;-2.00;99.90;;;;;;5053619;28;20110;-63
2024/01/18 02:57:35;;;;;;;;;;;-2.00;99.90;;;;;;5053280;28;20064;-62
2024/01/18 03:00:02;;;;;;;4.85;3.63;;;-1.90;99.90;;;;;;5053361;28;19920;-62
2024/01/18 03:02:28;;;;;;;6.43;3.05;;;-2.00;99.90;;;;;;5071278;28;20067;-62
2024/01/18 03:04:54;;;;;;;5.15;2.40;;;-1.90;99.90;;;;;;5053611;28;20362;-63
2024/01/18 03:07:20;;;;;;;;;;;-1.90;99.90;;;;;;5050250;28;20053;-62
2024/01/18 03:09:47;;;;;;;7.90;2.65;;;-1.90;99.90;;;;;;5051435;28;20023;-61
2024/01/18 03:12:14;;;;;;;3.53;2.42;;;-1.90;99.90;;;;;;5051018;28;20053;-62
2024/01/18 03:14:40;;;;;;;;;;;-2.00;99.90;;;;;;5051768;28;20060;-62
2024/01/18 03:17:06;;;;;;;3.80;2.20;;;-1.90;99.90;;;;;;5049531;28;19943;-63
2024/01/18 03:19:32;;;;;;;4.80;2.88;;;-2.00;99.90;;;;;;5050075;28;20045;-62
2024/01/18 03:21:58;;;;;;;3.28;2.20;;;-1.90;99.90;;;;;;5049383;28;20048;-63
2024/01/18 03:24:25;;;;;;;;;;;-1.90;99.90;;;;;;5064474;28;20052;-62
2024/01/18 03:26:52;;;;;;;4.70;2.20;;;-1.90;99.90;;;;;;5052756;28;19935;-62
2024/01/18 03:29:18;;;;;;;4.28;2.00;;;-1.80;99.90;;;;;;5070684;28;20052;-63
2024/01/18 03:31:44;;;;;;;5.80;2.22;;;-1.80;99.90;;;;;;5071079;28;20117;-62
2024/01/18 03:34:11;;;;;;;3.50;1.90;;;-2.00;99.90;;;;;;5059300;28;20551;-62
2024/01/18 03:36:37;;;;;;;;;;;-1.90;99.90;;;;;;5049528;28;20054;-63
2024/01/18 03:39:06;;;;;;;6.07;2.10;;;-1.90;99.90;;;;;;5050744;28;19930;-63
2024/01/18 03:41:32;;;;;;;6.07;2.72;;;-1.90;99.90;;;;;;5049284;28;20052;-62
2024/01/18 03:43:58;;;;;;;4.63;2.80;;;-2.00;99.90;;;;;;5052201;28;20052;-62
2024/01/18 03:46:24;;;;;;;5.53;2.80;;;-2.00;99.90;;;;;;5052401;28;20044;-63
2024/01/18 03:48:51;;;;;;;5.63;2.70;;;-2.10;99.90;;;;;;5063853;28;20063;-62
2024/01/18 03:51:17;;;;;;;;;;;-2.00;99.90;;;;;;5069336;28;20059;-63
2024/01/18 03:53:43;;;;;;;6.47;2.35;;;-2.10;99.90;;;;;;5068152;28;19920;-63
2024/01/18 03:56:13;;;;;;;3.22;1.90;;;-2.00;99.90;;;;;;5069652;28;20067;-63
2024/01/18 03:58:41;;;;;;;3.30;2.72;;;-2.00;99.90;;;;;;5070127;28;20052;-62
2024/01/18 04:01:07;;;;;;;4.05;2.72;;;-2.10;99.90;;;;;;5068875;28;20461;-62
2024/01/18 04:03:34;;;;;;;;;;;-2.20;99.90;;;;;;5069023;28;20056;-62
2024/01/18 04:06:00;;;;;;;4.32;2.60;;;-2.20;99.90;;;;;;5068432;28;20352;-63
2024/01/18 04:08:26;;;;;;;5.45;2.55;;;-2.10;99.90;;;;;;5070062;28;20126;-63
2024/01/18 04:10:52;;;;;;;4.47;2.55;;;-2.10;99.90;;;;;;5070098;28;20048;-63
2024/01/18 04:13:19;;;;;;;;;;;-2.20;99.90;;;;;;5070389;28;20067;-62
2024/01/18 04:15:45;;;;;;;4.47;2.25;;;-2.20;99.90;;;;;;5068492;28;19928;-62
2024/01/18 04:18:11;;;;;;;2.75;2.13;;;-2.20;99.90;;;;;;5069812;28;20106;-63
2024/01/18 04:20:38;;;;;;;4.95;2.90;;;-2.10;99.90;;;;;;5070062;28;20044;-62
2024/01/18 04:23:04;;;;;;;5.60;2.50;;;-2.10;99.90;;;;;;5069595;28;20106;-63
2024/01/18 04:25:30;;;;;;;3.25;2.53;;;-2.20;99.90;;;;;;5070095;28;20348;-63
2024/01/18 04:27:57;;;;;;;4.22;2.42;;;-2.20;99.90;;;;;;5069783;28;20052;-63
2024/01/18 04:30:23;;;;;;;4.20;1.90;;;-2.20;99.90;;;;;;5068809;28;20048;-63
2024/01/18 04:32:49;;;;;;;4.03;2.25;;;-2.10;99.90;;;;;;5069016;28;20113;-63
2024/01/18 04:35:16;;;;;;;4.07;2.47;;;-2.10;99.90;;;;;;5068317;28;20106;-63
2024/01/18 04:37:42;;;;;;;;;;;-2.10;99.90;;;;;;5069604;28;20358;-61
2024/01/18 04:40:09;;;;;;;3.92;1.88;;;-2.10;99.90;;;;;;5069460;28;20292;-63
2024/01/18 04:42:35;;;;;;;5.97;2.20;;;-2.10;99.90;;;;;;5069002;28;20064;-62
2024/01/18 04:45:01;;;;;;;2.33;1.85;;;-2.10;99.90;;;;;;5069647;28;20118;-63
2024/01/18 04:47:27;;;;;;;;;;;-2.10;99.90;;;;;;5068784;28;20079;-63
2024/01/18 04:49:54;;;;;;;2.70;2.42;;;-2.10;99.90;;;;;;5068833;28;20421;-63
2024/01/18 04:52:20;;;;;;;;;;;-2.30;99.90;;;;;;5068977;28;20053;-64
2024/01/18 04:54:47;;;;;;;2.92;1.55;;;-2.10;99.90;;;;;;5070784;28;19998;-63
2024/01/18 04:57:13;;;;;;;3.38;2.00;;;-2.10;99.90;;;;;;5073085;28;20044;-64
2024/01/18 04:59:39;;;;;;;;;;;-2.00;99.90;;;;;;5073919;28;20526;-63
2024/01/18 05:02:06;;;;;;;3.58;2.28;;;-2.10;99.90;;;;;;5072585;28;20307;-62
2024/01/18 05:04:32;;;;;;;2.83;2.33;;;-2.10;99.90;;;;;;5073266;28;20044;-63
2024/01/18 05:06:58;;;;;;;4.93;1.95;;;-2.20;99.90;;;;;;5072982;28;20040;-63
2024/01/18 05:09:24;;;;;;;;;;;-2.20;99.90;;;;;;5072748;28;20115;-63
2024/01/18 05:11:51;;;;;;;4.30;1.75;;;-2.20;99.90;;;;;;5072119;28;20275;-62
2024/01/18 05:14:18;;;;;;;3.90;2.50;;;-2.30;99.90;;;;;;5073182;28;20135;-63
2024/01/18 05:16:50;;;;;;;3.08;1.70;;;-2.30;99.90;;;;;;5071938;28;20063;-63
2024/01/18 05:19:18;;;;;;;2.80;1.90;;;-2.30;99.90;;;;;;5072068;28;20268;-63
2024/01/18 05:21:44;;;;;;;3.00;1.50;;;-2.30;99.90;;;;;;5071967;28;20048;-64
2024/01/18 05:24:10;;;;;;;3.72;1.80;;;-2.40;99.90;;;;;;5062222;28;20048;-64
2024/01/18 05:26:37;;;;;;;5.97;2.65;;;-2.30;99.90;;;;;;5052613;28;20437;-63
2024/01/18 05:29:03;;;;;;;3.67;1.60;;;-2.30;99.90;;;;;;5051847;28;20349;-62
2024/01/18 05:31:29;;;;;;;2.15;1.50;;;-2.30;99.90;;;;;;5052234;28;20056;-63
2024/01/18 05:33:56;;;;;;;;;;;-2.20;99.90;;;;;;5053107;28;20110;-64
2024/01/18 05:36:22;;;;;;;2.20;1.40;;;-2.30;99.90;;;;;;5052232;28;19920;-64
2024/01/18 05:38:48;;;;;;;;;;;-2.40;99.90;;;;;;5052186;28;20061;-63
2024/01/18 05:41:15;;;;;;;3.03;1.50;;;-2.50;99.90;;;;;;5051708;28;19920;-64
2024/01/18 05:43:41;;;;;;;;;;;-2.50;99.90;;;;;;5052816;28;20052;-64
2024/01/18 05:46:08;;;;;;;3.67;2.40;;;-2.40;99.90;;;;;;5051556;28;20337;-63
2024/01/18 05:48:34;;;;;;;2.63;1.85;;;-2.50;99.90;;;;;;5051665;28;20048;-63
2024/01/18 05:51:00;;;;;;;2.83;2.15;;;-2.50;99.90;;;;;;5033480;28;20079;-62
2024/01/18 05:53:27;;;;;;;;;;;-2.50;99.90;;;;;;5038808;28;20056;-64
2024/01/18 05:55:53;;;;;;;4.43;2.03;;;-2.40;99.90;;;;;;5052681;28;19931;-63
2024/01/18 05:58:19;;;;;;;6.28;1.95;;;-2.50;99.90;;;;;;5058293;28;20435;-63
2024/01/18 06:00:46;;;;;;;2.65;1.60;;;-2.40;99.90;;;;;;5069867;28;20048;-64
2024/01/18 06:03:12;;;;;;;;;;;-2.60;99.90;;;;;;5053406;28;20495;-64
2024/01/18 06:05:38;;;;;;;4.05;1.60;;;-2.60;99.90;;;;;;5052419;28;19947;-64
2024/01/18 06:08:04;;;;;;;5.72;1.80;;;-2.50;99.90;;;;;;5053384;28;20056;-64
2024/01/18 06:10:31;;;;;;;4.90;2.10;;;-2.60;99.90;;;;;;5052976;28;20052;-63
2024/01/18 06:12:58;;;;;;;3.25;2.35;;;-2.50;99.90;;;;;;5053603;28;20053;-63
2024/01/18 06:15:24;;;;;;;4.20;2.40;;;-2.40;99.90;;;;;;5069797;28;20040;-64
2024/01/18 06:17:50;;;;;;;2.50;1.90;;;-2.50;99.90;;;;;;5055726;28;20048;-63
2024/01/18 06:20:16;;;;;;;;;;;-2.50;99.90;;;;;;5079372;28;20040;-63
2024/01/18 06:22:43;;;;;;;3.28;2.22;;;-2.40;99.90;;;;;;5080590;28;19920;-62
2024/01/18 06:25:09;;;;;;;;;;;-2.50;99.90;;;;;;5071130;28;20045;-62
2024/01/18 06:27:35;;;;;;;3.72;2.15;;;-2.60;99.90;;;;;;5052630;28;19920;-63
2024/01/18 06:30:01;;;;;;;;;;;-2.50;99.90;;;;;;5053336;28;20070;-63
2024/01/18 06:32:28;;;;;;;3.88;1.63;;;-2.40;99.90;;;;;;5053138;28;19982;-63
2024/01/18 06:34:54;;;;;;;;;;;-2.40;99.90;;;;;;5070841;28;20105;-63
2024/01/18 06:37:20;;;;;;;3.85;1.50;;;-2.50;99.90;;;;;;5069998;28;20364;-62
2024/01/18 06:39:46;;;;;;;;;;;-2.40;99.90;;;;;;5070389;28;20040;-63
2024/01/18 06:42:13;;;;;;;4.35;1.60;;;-2.40;99.90;;;;;;5070404;28;20233;-64
2024/01/18 06:44:43;;;;;;;;;;;-2.50;99.90;;;;;;5070370;28;20040;-64
2024/01/18 06:47:09;;;;;;;3.50;1.50;;;-2.40;99.90;;;;;;5031593;28;1114999;-64
2024/01/18 06:49:35;;;;;;;;;;;-2.40;99.90;;;;;;5092055;28;20464;-63
2024/01/18 06:52:02;;;;;;;3.30;1.85;;;-2.40;99.90;;;;;;5091176;28;19920;-63
2024/01/18 06:54:28;;;;;;;3.17;1.42;;;-2.50;99.90;;;;;;5090836;28;20126;-64
2024/01/18 06:56:54;;;;;;;1.88;1.55;;;-2.50;99.90;;;;;;5075267;28;20055;-63
2024/01/18 06:59:20;;;;;;;;;;;-2.50;99.90;;;;;;5057123;28;20052;-64
2024/01/18 07:01:47;;;;;;;4.22;1.52;;;-2.50;99.90;;;;;;5073529;28;19923;-64
2024/01/18 07:04:13;;;;;;;3.15;1.58;;;-2.50;99.90;;;;;;5073665;28;20063;-62
2024/01/18 07:06:39;;;;;;;6.05;1.90;;;-2.50;99.90;;;;;;5091631;28;20066;-63
2024/01/18 07:09:08;;;;;;;;;;;-2.60;99.90;;;;;;5073763;28;20093;-63
2024/01/18 07:11:38;;;;;;;4.20;2.45;;;-2.50;99.90;;;;;;5073927;28;20344;-63
2024/01/18 07:14:04;;;;;;;5.53;2.45;;;-2.50;99.90;;;;;;5074370;28;20044;-62
2024/01/18 07:16:30;;;;;;;5.28;2.50;;;-2.50;99.90;;;;;;5091518;28;20068;-63
2024/01/18 07:18:56;;;;;;;;;;;-2.50;99.90;;;;;;5091747;28;20052;-63
2024/01/18 07:21:23;;;;;;;3.13;1.80;;;-2.40;99.90;;;;;;5090915;28;19924;-63
2024/01/18 07:23:49;;;;;;;;;;;-2.40;99.90;;;;;;5073931;28;20054;-63
2024/01/18 07:26:15;;;;;;;3.40;1.90;;;-2.50;99.90;;;;;;5089842;28;19919;-62
2024/01/18 07:28:41;;;;;;;5.30;2.85;;;-2.40;99.90;;;;;;5091061;28;20475;-63
2024/01/18 07:31:08;;;;;;;3.85;3.15;;;-2.40;99.90;;;;;;5091545;28;20372;-63
2024/01/18 07:33:34;;;;;;;5.20;3.00;;;-2.40;99.90;;;;;;5072871;28;20115;-63
2024/01/18 07:36:01;;;;;;;6.22;3.00;;;-2.40;99.90;;;;;;5073138;28;20093;-64
2024/01/18 07:38:28;;;;;;;6.13;2.97;;;-2.50;99.90;;;;;;5091047;28;20052;-64
2024/01/18 07:40:54;;;;;;;6.32;3.25;;;-2.30;99.90;;;;;;5072355;28;20052;-62
2024/01/18 07:43:20;;;;;;;;;;;-2.40;99.90;;;;;;5075251;28;20062;-64
2024/01/18 07:45:46;;;;;;;5.38;3.90;;;-2.30;99.90;;;;;;5095362;28;20359;-62
2024/01/18 07:48:13;;;;;;;;;;;-2.40;99.90;;;;;;5072426;28;20396;-63
2024/01/18 07:50:39;;;;;;;6.32;3.33;;;-2.40;99.90;;;;;;5073010;28;19920;-64
2024/01/18 07:53:05;;;;;;;;;;;-2.50;99.90;;;;;;5073286;28;20052;-64
2024/01/18 07:55:31;;;;;;;5.88;2.78;;;-2.30;99.90;;;;;;5073048;28;19924;-64
2024/01/18 07:57:58;;;;;;;7.60;3.55;;;-2.40;99.90;;;;;;5072805;28;20044;-65
2024/01/18 08:00:24;;;;;;;;;;;-2.40;99.90;;;;;;5072182;28;20045;-63
2024/01/18 08:02:50;;;;;;;10.13;5.28;;;-2.30;99.90;;;;;;5088477;28;20284;-64
2024/01/18 08:05:17;;;;;;;15.70;6.13;;;-2.30;99.90;;;;;;5054852;28;20052;-64
2024/01/18 08:07:43;;;;;;;16.50;6.75;;;-2.30;99.90;;;;;;5055102;28;20048;-64
2024/01/18 08:10:10;;;;;;;14.93;5.82;;;-2.20;99.90;;;;;;5072290;28;20044;-64
2024/01/18 08:12:37;;;;;;;15.10;6.40;;;-2.20;99.90;;;;;;5054888;28;20071;-63
2024/01/18 08:15:05;;;;;;;11.25;4.10;;;-2.10;99.90;;;;;;5054554;28;20045;-64
2024/01/18 08:17:31;;;;;;;7.45;3.28;;;-2.10;99.90;;;;;;5070655;28;20060;-64
2024/01/18 08:19:57;;;;;;;6.93;2.55;;;-2.20;99.90;;;;;;5071121;28;20056;-63
2024/01/18 08:22:23;;;;;;;;;;;-2.00;99.90;;;;;;5073159;28;20063;-62
2024/01/18 08:24:50;;;;;;;5.03;2.30;;;-2.00;99.90;;;;;;5060543;28;19920;-63
2024/01/18 08:27:16;;;;;;;4.18;2.35;;;-2.10;99.90;;;;;;5054465;28;20059;-63
2024/01/18 08:29:42;;;;;;;5.25;2.28;;;-2.00;99.90;;;;;;5054184;28;20102;-63
2024/01/18 08:32:08;;;;;;;4.05;2.30;;;-2.10;99.90;;;;;;5054524;28;20064;-65
2024/01/18 08:34:35;;;;;;;3.63;2.30;;;-2.10;99.90;;;;;;5054295;28;20052;-64
2024/01/18 08:37:03;;;;;;;2.97;2.00;;;-2.00;99.90;;;;;;5054598;28;20469;-64
2024/01/18 08:39:29;;;;;;;3.58;2.13;;;-1.80;99.90;;;;;;5054596;28;20044;-62
2024/01/18 08:41:59;;;;;;;4.20;1.98;;;-1.70;99.90;;;;;;5054476;28;20090;-64
2024/01/18 08:44:28;;;;;;;3.85;2.45;;;-1.80;99.90;;;;;;5054056;28;20044;-62
2024/01/18 08:46:55;;;;;;;5.53;1.73;;;-1.60;99.90;;;;;;5072569;28;20056;-62
2024/01/18 08:49:24;;;;;;;7.60;2.28;;;-1.60;99.90;;;;;;5097020;28;20044;-64
2024/01/18 08:51:52;;;;;;;6.20;2.75;;;-1.50;99.90;;;;;;5074553;28;20056;-63
2024/01/18 08:54:20;;;;;;;4.22;2.53;;;-1.50;99.90;;;;;;5074068;28;20047;-64
2024/01/18 08:56:47;;;;;;;7.80;3.20;;;-1.40;99.90;;;;;;5074065;28;20056;-62
2024/01/18 08:59:13;;;;;;;6.57;3.05;;;-1.20;99.90;;;;;;5074252;28;20051;-63
2024/01/18 09:01:39;;;;;;;4.95;2.67;;;-1.20;99.90;;;;;;5073966;28;20044;-64
2024/01/18 09:04:06;;;;;;;;;;;-1.00;99.90;;;;;;5074457;28;20402;-63
2024/01/18 09:06:32;;;;;;;7.20;2.95;;;-1.00;99.90;;;;;;5107277;28;19920;-63
2024/01/18 09:08:58;;;;;;;;;;;-1.00;99.90;;;;;;5074313;28;20059;-64
2024/01/18 09:11:24;;;;;;;8.32;4.00;;;-1.00;99.90;;;;;;5107618;28;20275;-63
2024/01/18 09:13:50;;;;;;;11.20;5.22;;;-0.80;99.90;;;;;;5074141;28;20070;-63
2024/01/18 09:16:17;;;;;;;;;;;-0.70;99.90;;;;;;5074295;28;20476;-63
2024/01/18 09:18:43;;;;;;;11.75;4.30;;;-0.60;99.90;;;;;;5092669;28;19951;-62
2024/01/18 09:21:09;;;;;;;;;;;-0.70;99.90;;;;;;5092862;28;20052;-63
2024/01/18 09:23:36;;;;;;;13.73;5.78;;;-0.50;99.90;;;;;;5091999;28;19970;-62
2024/01/18 09:26:02;;;;;;;15.70;6.18;;;-0.50;99.90;;;;;;5073941;28;20056;-64
2024/01/18 09:28:29;;;;;;;13.23;5.65;;;-0.40;99.90;;;;;;5091734;28;20063;-63
2024/01/18 09:30:57;;;;;;;11.60;4.70;;;-0.40;99.90;;;;;;5073605;28;20117;-62
2024/01/18 09:33:23;;;;;;;6.68;2.83;;;-0.30;99.90;;;;;;5083132;28;20049;-62
2024/01/18 09:35:51;;;;;;;;;;;-0.10;99.90;;;;;;5092516;28;20055;-62
2024/01/18 09:38:19;;;;;;;5.28;2.67;;;-0.10;99.90;;;;;;5073176;28;19924;-63
2024/01/18 09:40:46;;;;;;;9.40;2.67;;;0.00;99.90;;;;;;5091811;28;20349;-66
2024/01/18 09:43:15;;;;;;;5.00;1.95;;;0.10;99.90;;;;;;5094795;28;20093;-64
2024/01/18 09:45:48;;;;;;;4.25;1.92;;;0.20;99.90;;;;;;5057280;28;20063;-63
2024/01/18 09:48:15;;;;;;;5.15;2.00;;;0.10;99.90;;;;;;5040482;28;20079;-63
2024/01/18 09:50:45;;;;;;;3.75;2.22;;;0.20;99.90;;;;;;5090148;28;20052;-63
2024/01/18 09:53:13;;;;;;;3.15;2.03;;;0.10;99.90;;;;;;5056568;28;20071;-63
2024/01/18 09:55:39;;;;;;;3.88;1.65;;;0.50;99.90;;;;;;5070393;28;20110;-62
2024/01/18 09:58:12;;;;;;;4.20;2.47;;;0.50;99.90;;;;;;5070663;28;20053;-63
2024/01/18 10:00:43;;;;;;;6.50;2.25;;;0.60;99.90;;;;;;5070120;28;20057;-63
2024/01/18 10:03:10;;;;;;;4.43;2.95;;;0.70;99.90;;;;;;5037269;28;20084;-63
2024/01/18 10:05:37;;;;;;;3.28;1.92;;;0.70;99.90;;;;;;5055438;28;20048;-64
2024/01/18 10:08:03;;;;;;;4.07;2.00;;;0.60;99.90;;;;;;5053223;28;20055;-64
2024/01/18 10:10:30;;;;;;;5.13;1.83;;;0.70;99.90;;;;;;5052898;28;20060;-63
2024/01/18 10:12:56;;;;;;;;;;;0.80;99.90;;;;;;5054003;28;20060;-63
2024/01/18 10:15:32;;;;;;;3.67;1.75;;;0.70;99.90;;;;;;5038552;28;19928;-63
2024/01/18 10:18:05;;;;;;;3.45;1.67;;;0.90;99.90;;;;;;5036811;28;20103;-64
2024/01/18 10:20:31;;;;;;;;;;;0.80;99.90;;;;;;5054765;28;20060;-63
2024/01/18 10:22:59;;;;;;;4.95;1.65;;;0.90;99.90;;;;;;5070316;28;19920;-65
2024/01/18 10:25:26;;;;;;;2.92;2.65;;;1.00;99.90;;;;;;5056164;28;20044;-64
2024/01/18 10:27:56;;;;;;;2.85;1.90;;;1.00;99.90;;;;;;5074088;28;20353;-64
2024/01/18 10:30:23;;;;;;;5.78;2.85;;;1.10;99.90;;;;;;5073325;28;20473;-63
2024/01/18 10:32:51;;;;;;;5.65;1.83;;;1.10;99.90;;;;;;5056350;28;20048;-63
2024/01/18 10:35:24;;;;;;;5.43;1.85;;;1.10;99.90;;;;;;5055919;28;20052;-62
2024/01/18 10:38:05;;;;;;;5.35;3.20;;;1.40;99.90;;;;;;5056219;28;20056;-63
2024/01/18 10:40:33;;;;;;;5.00;2.72;;;1.50;99.90;;;;;;5055792;28;20060;-63
2024/01/18 10:43:01;;;;;;;3.97;1.70;;;1.60;99.90;;;;;;5055787;28;20049;-62
2024/01/18 10:45:29;;;;;;;7.65;2.28;;;1.70;99.90;;;;;;5072915;28;20055;-62
2024/01/18 10:47:56;;;;;;;4.95;1.90;;;1.60;99.90;;;;;;5056234;28;20048;-61
2024/01/18 10:50:25;;;;;;;5.40;2.20;;;1.70;99.90;;;;;;5074134;28;20044;-64
2024/01/18 10:52:53;;;;;;;4.63;1.85;;;1.50;99.90;;;;;;5072615;28;20095;-64
2024/01/18 10:55:20;;;;;;;3.58;1.63;;;1.60;99.90;;;;;;5073861;28;20380;-62
2024/01/18 10:57:47;;;;;;;4.38;1.60;;;1.40;99.90;;;;;;5056076;28;20067;-64
2024/01/18 11:00:15;;;;;;;4.18;1.63;;;1.60;99.90;;;;;;5038921;28;20068;-63
2024/01/18 11:02:44;;;;;;;3.88;2.03;;;1.60;99.90;;;;;;5036857;28;20469;-62
2024/01/18 11:05:20;;;;;;;3.67;1.55;;;1.50;99.90;;;;;;5068853;28;20479;-62
2024/01/18 11:07:47;;;;;;;4.35;2.33;;;1.60;99.90;;;;;;5073641;28;20049;-63
2024/01/18 11:10:13;;;;;;;5.45;2.60;;;1.80;99.90;;;;;;5056381;28;20044;-63
2024/01/18 11:12:41;;;;;;;6.15;2.28;;;1.80;99.90;;;;;;5074485;28;20144;-64
2024/01/18 11:15:13;;;;;;;5.63;2.40;;;2.00;99.90;;;;;;5056104;28;20472;-62
2024/01/18 11:17:46;;;;;;;6.88;2.40;;;1.90;99.90;;;;;;5056419;28;20750;-63
2024/01/18 11:20:14;;;;;;;5.13;2.33;;;2.10;99.90;;;;;;5076019;28;20147;-63
2024/01/18 11:22:41;;;;;;;6.47;3.17;;;2.00;99.90;;;;;;5056080;28;20693;-62
2024/01/18 11:25:10;;;;;;;5.72;2.33;;;2.20;99.90;;;;;;5073370;28;20067;-63
2024/01/18 11:27:39;;;;;;;9.18;3.53;;;2.30;99.90;;;;;;5055037;28;20337;-64
2024/01/18 11:30:13;;;;;;;7.95;3.45;;;2.30;99.90;;;;;;5072995;28;20060;-63
2024/01/18 11:32:40;;;;;;;6.32;3.45;;;2.30;99.90;;;;;;5073063;28;20427;-63
2024/01/18 11:35:12;;;;;;;7.15;2.60;;;2.20;99.90;;;;;;5072880;28;20064;-63
2024/01/18 11:37:40;;;;;;;13.77;3.70;;;2.20;99.90;;;;;;5072356;28;20062;-64
2024/01/18 11:40:09;;;;;;;9.68;4.13;;;2.30;99.90;;;;;;5073016;28;20056;-62
2024/01/18 11:42:41;;;;;;;11.75;4.18;;;2.50;99.90;;;;;;5055192;28;20089;-63
2024/01/18 11:45:18;;;;;;;12.32;5.07;;;2.60;99.90;;;;;;5071951;28;20048;-63
2024/01/18 11:47:45;;;;;;;13.50;6.90;;;2.60;99.90;;;;;;5078046;28;20063;-63
2024/01/18 11:50:12;;;;;;;11.25;5.20;;;2.60;99.90;;;;;;5091804;28;20468;-63
2024/01/18 11:52:43;;;;;;;9.18;4.55;;;2.50;99.90;;;;;;5092579;28;20054;-64
2024/01/18 11:55:11;;;;;;;7.65;3.95;;;2.50;99.90;;;;;;5091510;28;20484;-64
2024/01/18 11:57:38;;;;;;;7.53;3.80;;;2.60;99.90;;;;;;5092310;28;20365;-65
2024/01/18 12:00:05;;;;;;;7.60;2.92;;;2.50;99.90;;;;;;5054128;28;20048;-63
2024/01/18 12:02:33;;;;;;;5.35;2.13;;;2.60;99.90;;;;;;5072006;28;20114;-62
2024/01/18 12:04:59;;;;;;;5.82;2.00;;;2.50;99.90;;;;;;5085475;28;20040;-63
2024/01/18 12:07:26;;;;;;;4.53;1.90;;;2.60;99.90;;;;;;5074654;28;20044;-63
2024/01/18 12:09:53;;;;;;;3.67;1.85;;;2.50;99.90;;;;;;5092151;28;20365;-62
2024/01/18 12:12:19;;;;;;;3.25;2.03;;;2.50;99.90;;;;;;5092246;28;20051;-64
2024/01/18 12:14:49;;;;;;;4.03;1.60;;;2.70;99.90;;;;;;5073848;28;20071;-65
2024/01/18 12:17:16;;;;;;;2.13;1.63;;;2.60;99.90;;;;;;5092289;28;20048;-63
2024/01/18 12:19:45;;;;;;;2.28;1.45;;;2.70;99.90;;;;;;5073929;28;20464;-63
2024/01/18 12:22:19;;;;;;;2.10;1.50;;;2.60;99.90;;;;;;5057748;28;20097;-64
2024/01/18 12:24:51;;;;;;;4.28;1.73;;;2.50;99.90;;;;;;5091881;28;20051;-63
2024/01/18 12:27:18;;;;;;;5.10;1.55;;;2.50;99.90;;;;;;5091843;28;20044;-64
2024/01/18 12:29:44;;;;;;;3.85;1.55;;;2.50;99.90;;;;;;5091878;28;20043;-62
2024/01/18 12:32:15;;;;;;;4.28;1.20;;;2.60;99.90;;;;;;5091971;28;20059;-64
2024/01/18 12:34:43;;;;;;;2.95;1.58;;;2.60;99.90;;;;;;5091879;28;20059;-63
2024/01/18 12:37:12;;;;;;;3.28;1.70;;;2.70;99.90;;;;;;5091706;28;20048;-63
2024/01/18 12:39:38;;;;;;;3.92;1.55;;;2.60;99.90;;;;;;5073724;28;20124;-63
2024/01/18 12:42:05;;;;;;;3.15;1.45;;;2.70;99.90;;;;;;5073504;28;20558;-64
2024/01/18 12:44:31;;;;;;;3.05;1.50;;;2.60;99.90;;;;;;5092159;28;20059;-64
2024/01/18 12:46:59;;;;;;;;;;;2.70;99.90;;;;;;5092834;28;20048;-64
2024/01/18 12:49:25;;;;;;;2.38;1.73;;;2.60;99.90;;;;;;5091666;28;20159;-63
2024/01/18 12:51:53;;;;;;;2.78;1.00;;;2.50;99.90;;;;;;5092155;28;20055;-63
2024/01/18 12:54:23;;;;;;;3.45;1.23;;;2.50;99.90;;;;;;5092343;28;20044;-64
2024/01/18 12:56:58;;;;;;;2.78;1.77;;;2.40;99.90;;;;;;5092196;28;20052;-63
2024/01/18 12:59:31;;;;;;;5.07;1.77;;;2.40;99.90;;;;;;5091882;28;20090;-63
2024/01/18 13:01:58;;;;;;;1.80;1.05;;;2.30;99.90;;;;;;5092391;28;20040;-63
2024/01/18 13:04:26;;;;;;;3.80;1.50;;;2.20;99.90;;;;;;5092027;28;20048;-64